createdAt,value
2022-08-03T00:01:25.052Z,100639.19
2022-08-03T00:03:51.783Z,100634.41
2022-08-03T00:06:18.456Z,100642.19
2022-08-03T00:08:45.266Z,100644.38
2022-08-03T00:11:12.045Z,100641.78
2022-08-03T00:13:39.127Z,100641.34
2022-08-03T00:16:05.928Z,100641.78
2022-08-03T00:18:32.725Z,100652.03
2022-08-03T00:20:59.566Z,100645.66
2022-08-03T00:23:29.421Z,100642.03
2022-08-03T00:26:13.813Z,100643.09
2022-08-03T00:28:40.580Z,100642.91
2022-08-03T00:31:07.305Z,100643.69
2022-08-03T00:33:59.061Z,100640.50
2022-08-03T00:36:20.897Z,100645.00
2022-08-03T00:38:47.587Z,100648.78
2022-08-03T00:41:15.737Z,100635.34
2022-08-03T00:43:42.536Z,100647.88
2022-08-03T00:46:09.354Z,100639.31
2022-08-03T00:48:36.012Z,100644.81
2022-08-03T00:51:03.088Z,100638.75
2022-08-03T00:53:30.123Z,100643.28
2022-08-03T00:55:56.976Z,100636.09
2022-08-03T00:58:24.451Z,100636.19
2022-08-03T01:00:51.435Z,100637.88
2022-08-03T01:03:18.083Z,100641.91
2022-08-03T01:06:18.399Z,100642.00
2022-08-03T01:09:14.826Z,100638.69
2022-08-03T01:12:07.945Z,100631.59
2022-08-03T01:14:41.901Z,100637.22
2022-08-03T01:17:29.133Z,100633.22
2022-08-03T01:20:10.628Z,100632.09
2022-08-03T01:22:45.073Z,100631.56
2022-08-03T01:25:33.105Z,100626.88
2022-08-03T01:28:23.537Z,100624.81
2022-08-03T01:30:53.479Z,100619.91
2022-08-03T01:33:32.256Z,100623.91
2022-08-03T01:36:02.497Z,100624.16
2022-08-03T01:38:34.171Z,100626.00
2022-08-03T01:41:07.536Z,100636.16
2022-08-03T01:44:27.592Z,100627.03
2022-08-03T01:46:25.880Z,100629.53
2022-08-03T01:48:55.212Z,100631.38
2022-08-03T01:51:23.104Z,100629.34
2022-08-03T01:53:54.835Z,100624.56
2022-08-03T01:56:24.907Z,100629.22
2022-08-03T01:58:53.842Z,100626.59
2022-08-03T02:01:22.776Z,100620.19
2022-08-03T02:03:59.805Z,100613.81
2022-08-03T02:06:59.958Z,100622.94
2022-08-03T02:09:19.470Z,100623.38
2022-08-03T02:11:47.388Z,100612.22
2022-08-03T02:14:15.232Z,100617.03
2022-08-03T02:16:43.866Z,100616.31
2022-08-03T02:19:11.818Z,100617.91
2022-08-03T02:21:57.408Z,100625.31
2022-08-03T02:24:26.661Z,100618.59
2022-08-03T02:26:56.614Z,100616.19
2022-08-03T02:29:39.653Z,100616.19
2022-08-03T02:32:14.283Z,100620.75
2022-08-03T02:34:45.155Z,100624.53
2022-08-03T02:37:13.491Z,100616.31
2022-08-03T02:39:42.569Z,100622.91
2022-08-03T02:42:12.158Z,100624.03
2022-08-03T02:44:43.735Z,100621.66
2022-08-03T02:47:11.914Z,100617.66
2022-08-03T02:49:51.577Z,100611.72
2022-08-03T02:52:24.432Z,100609.34
2022-08-03T02:54:55.369Z,100608.53
2022-08-03T02:57:24.969Z,100612.75
2022-08-03T02:59:53.412Z,100609.22
2022-08-03T03:02:21.095Z,100611.97
2022-08-03T03:05:52.072Z,100606.38
2022-08-03T03:07:51.338Z,100607.84
2022-08-03T03:10:20.156Z,100610.59
2022-08-03T03:12:48.338Z,100612.53
2022-08-03T03:15:15.069Z,100608.97
2022-08-03T03:17:44.270Z,100600.75
2022-08-03T03:20:12.152Z,100607.38
2022-08-03T03:22:40.230Z,100604.66
2022-08-03T03:25:13.278Z,100612.38
2022-08-03T03:27:40.655Z,100604.50
2022-08-03T03:30:08.173Z,100607.59
2022-08-03T03:32:37.020Z,100600.50
2022-08-03T03:35:05.096Z,100597.31
2022-08-03T03:37:31.770Z,100611.31
2022-08-03T03:39:58.767Z,100608.13
2022-08-03T03:42:26.083Z,100608.66
2022-08-03T03:44:52.947Z,100610.84
2022-08-03T03:47:32.373Z,100605.25
2022-08-03T03:50:00.215Z,100609.56
2022-08-03T03:52:26.994Z,100606.81
2022-08-03T03:54:57.554Z,100606.16
2022-08-03T03:57:27.918Z,100611.63
2022-08-03T03:59:54.595Z,100610.03
2022-08-03T04:02:21.511Z,100610.03
2022-08-03T04:05:06.650Z,100608.91
2022-08-03T04:08:14.674Z,100610.72
2022-08-03T04:10:59.895Z,100607.38
2022-08-03T04:13:33.830Z,100605.66
2022-08-03T04:16:01.974Z,100609.03
2022-08-03T04:18:31.753Z,100612.72
2022-08-03T04:21:03.615Z,100616.72
2022-08-03T04:23:34.938Z,100611.91
2022-08-03T04:26:04.900Z,100621.59
2022-08-03T04:28:33.394Z,100612.25
2022-08-03T04:31:03.060Z,100619.00
2022-08-03T04:33:32.452Z,100625.91
2022-08-03T04:36:03.962Z,100636.59
2022-08-03T04:38:39.878Z,100633.63
2022-08-03T04:41:08.014Z,100636.25
2022-08-03T04:43:36.283Z,100634.06
2022-08-03T04:46:04.620Z,100637.94
2022-08-03T04:48:31.643Z,100632.13
2022-08-03T04:50:58.568Z,100639.78
2022-08-03T04:53:25.331Z,100635.72
2022-08-03T04:55:52.086Z,100636.19
2022-08-03T04:58:18.811Z,100639.56
2022-08-03T05:00:45.808Z,100636.84
2022-08-03T05:03:20.468Z,100639.00
2022-08-03T05:05:53.347Z,100640.47
2022-08-03T05:08:29.528Z,100633.25
2022-08-03T05:10:58.900Z,100638.59
2022-08-03T05:13:26.756Z,100637.13
2022-08-03T05:15:53.811Z,100628.72
2022-08-03T05:18:20.976Z,100632.00
2022-08-03T05:20:47.936Z,100639.53
2022-08-03T05:23:18.054Z,100637.84
2022-08-03T05:25:49.594Z,100634.09
2022-08-03T05:28:17.204Z,100641.31
2022-08-03T05:30:44.040Z,100639.50
2022-08-03T05:33:11.220Z,100638.97
2022-08-03T05:35:57.234Z,100642.63
2022-08-03T05:38:28.841Z,100641.59
2022-08-03T05:41:21.089Z,100651.06
2022-08-03T05:43:48.097Z,100651.53
2022-08-03T05:46:15.282Z,100652.78
2022-08-03T05:48:43.300Z,100652.44
2022-08-03T05:51:11.971Z,100651.31
2022-08-03T05:53:42.268Z,100652.13
2022-08-03T05:56:17.739Z,100645.97
2022-08-03T05:58:47.093Z,100651.59
2022-08-03T06:01:15.086Z,100654.31
2022-08-03T06:03:42.120Z,100651.91
2022-08-03T06:06:08.887Z,100656.38
2022-08-03T06:08:35.808Z,100650.25
2022-08-03T06:11:05.873Z,100649.56
2022-08-03T06:13:32.927Z,100653.44
2022-08-03T06:16:00.179Z,100658.50
2022-08-03T06:18:26.970Z,100654.41
2022-08-03T06:20:54.214Z,100656.47
2022-08-03T06:23:25.323Z,100651.56
2022-08-03T06:26:09.833Z,100650.53
2022-08-03T06:28:53.165Z,100648.25
2022-08-03T06:31:32.326Z,100654.66
2022-08-03T06:34:33.975Z,100652.59
2022-08-03T06:36:50.079Z,100649.16
2022-08-03T06:39:18.523Z,100660.09
2022-08-03T06:41:45.565Z,100662.44
2022-08-03T06:44:12.909Z,100662.88
2022-08-03T06:46:39.849Z,100658.41
2022-08-03T06:49:07.345Z,100659.56
2022-08-03T06:52:03.132Z,100662.16
2022-08-03T06:54:22.294Z,100659.16
2022-08-03T06:56:49.023Z,100663.97
2022-08-03T07:00:06.208Z,100662.47
2022-08-03T07:02:03.039Z,100666.81
2022-08-03T07:04:29.952Z,100666.47
2022-08-03T07:06:57.339Z,100665.06
2022-08-03T07:09:24.455Z,100662.34
2022-08-03T07:11:51.110Z,100665.50
2022-08-03T07:14:17.939Z,100664.56
2022-08-03T07:16:44.680Z,100659.97
2022-08-03T07:19:12.273Z,100668.81
2022-08-03T07:21:38.983Z,100669.41
2022-08-03T07:24:06.284Z,100662.75
2022-08-03T07:26:33.097Z,100668.41
2022-08-03T07:29:01.126Z,100668.56
2022-08-03T07:31:27.867Z,100667.44
2022-08-03T07:34:00.988Z,100667.16
2022-08-03T07:36:27.694Z,100663.38
2022-08-03T07:38:54.424Z,100670.69
2022-08-03T07:41:21.196Z,100664.69
2022-08-03T07:43:47.910Z,100664.84
2022-08-03T07:46:15.944Z,100663.44
2022-08-03T07:48:42.611Z,100665.19
2022-08-03T07:51:09.256Z,100655.75
2022-08-03T07:53:37.880Z,100662.47
2022-08-03T07:56:15.018Z,100663.00
2022-08-03T07:58:41.877Z,100663.56
2022-08-03T08:01:09.238Z,100662.66
2022-08-03T08:03:52.305Z,100658.94
2022-08-03T08:06:21.734Z,100665.53
2022-08-03T08:08:48.748Z,100659.53
2022-08-03T08:11:15.757Z,100656.28
2022-08-03T08:13:42.461Z,100652.28
2022-08-03T08:16:09.154Z,100648.31
2022-08-03T08:18:35.961Z,100653.84
2022-08-03T08:21:03.520Z,100643.97
2022-08-03T08:23:42.076Z,100646.13
2022-08-03T08:26:10.565Z,100643.59
2022-08-03T08:28:37.462Z,100635.72
2022-08-03T08:31:04.391Z,100642.81
2022-08-03T08:36:18.114Z,100623.31
2022-08-03T08:38:45.693Z,100624.41
2022-08-03T08:41:14.579Z,100617.97
2022-08-03T08:43:42.124Z,100606.97
2022-08-03T08:46:22.810Z,100603.31
2022-08-03T08:48:52.396Z,100603.13
2022-08-03T08:51:21.544Z,100602.91
2022-08-03T08:53:52.265Z,100599.91
2022-08-03T08:56:22.870Z,100595.56
2022-08-03T08:58:53.809Z,100592.56
2022-08-03T09:01:21.841Z,100593.06
2022-08-03T09:03:48.878Z,100594.75
2022-08-03T09:06:16.404Z,100593.47
2022-08-03T09:08:43.357Z,100591.53
2022-08-03T09:11:12.095Z,100589.63
2022-08-03T09:13:39.565Z,100583.59
2022-08-03T09:16:13.574Z,100588.31
2022-08-03T09:18:42.210Z,100583.97
2022-08-03T09:21:32.935Z,100579.53
2022-08-03T09:24:04.170Z,100586.72
2022-08-03T09:26:33.738Z,100585.00
2022-08-03T09:29:07.121Z,100579.31
2022-08-03T09:31:46.567Z,100576.06
2022-08-03T09:34:16.302Z,100575.06
2022-08-03T09:36:51.080Z,100574.56
2022-08-03T09:39:41.302Z,100576.25
2022-08-03T09:42:15.570Z,100563.16
2022-08-03T09:44:47.845Z,100565.91
2022-08-03T09:47:17.875Z,100566.03
2022-08-03T09:49:59.063Z,100557.28
2022-08-03T09:52:50.139Z,100561.78
2022-08-03T09:56:33.008Z,100555.91
2022-08-03T09:58:10.429Z,100547.44
2022-08-03T10:01:04.261Z,100555.84
2022-08-03T10:03:35.071Z,100563.16
2022-08-03T10:06:22.312Z,100554.31
2022-08-03T10:09:06.957Z,100556.81
2022-08-03T10:11:41.236Z,100546.13
2022-08-03T10:14:11.673Z,100542.88
2022-08-03T10:16:41.344Z,100541.22
2022-08-03T10:19:09.778Z,100533.22
2022-08-03T10:21:40.688Z,100537.81
2022-08-03T10:24:11.126Z,100530.63
2022-08-03T10:26:49.507Z,100529.97
2022-08-03T10:29:28.193Z,100530.78
2022-08-03T10:31:58.876Z,100528.59
2022-08-03T10:34:35.052Z,100511.47
2022-08-03T10:37:08.470Z,100515.75
2022-08-03T10:39:36.227Z,100507.06
2022-08-03T10:42:03.771Z,100512.97
2022-08-03T10:44:40.048Z,100503.72
2022-08-03T10:47:10.353Z,100497.88
2022-08-03T10:49:38.256Z,100505.91
2022-08-03T10:52:10.439Z,100497.03
2022-08-03T10:55:07.709Z,100499.63
2022-08-03T10:57:49.928Z,100492.69
2022-08-03T11:00:24.538Z,100485.53
2022-08-03T11:03:16.675Z,100482.69
2022-08-03T11:05:44.991Z,100483.47
2022-08-03T11:08:19.505Z,100482.56
2022-08-03T11:10:47.361Z,100476.34
2022-08-03T11:13:39.088Z,100472.47
2022-08-03T11:16:22.265Z,100470.28
2022-08-03T11:19:17.697Z,100459.41
2022-08-03T11:21:50.689Z,100470.94
2022-08-03T11:24:57.311Z,100461.88
2022-08-03T11:27:28.196Z,100458.97
2022-08-03T11:29:59.207Z,100454.25
2022-08-03T11:32:38.294Z,100458.28
2022-08-03T11:35:16.439Z,100449.31
2022-08-03T11:38:04.866Z,100447.00
2022-08-03T11:40:48.461Z,100441.66
2022-08-03T11:43:31.308Z,100442.91
2022-08-03T11:46:28.546Z,100449.44
2022-08-03T11:49:09.881Z,100444.63
2022-08-03T11:51:40.248Z,100449.44
2022-08-03T11:54:07.710Z,100440.25
2022-08-03T11:56:53.456Z,100433.75
2022-08-03T11:59:32.756Z,100434.91
2022-08-03T12:02:13.457Z,100431.19
2022-08-03T12:04:53.409Z,100419.84
2022-08-03T12:08:02.713Z,100420.69
2022-08-03T12:10:07.633Z,100419.16
2022-08-03T12:12:34.583Z,100416.91
2022-08-03T12:15:01.452Z,100414.38
2022-08-03T12:17:37.735Z,100417.84
2022-08-03T12:20:07.052Z,100409.03
2022-08-03T12:22:40.862Z,100410.06
2022-08-03T12:25:09.018Z,100408.34
2022-08-03T12:27:36.291Z,100415.25
2022-08-03T12:30:05.072Z,100418.03
2022-08-03T12:32:31.911Z,100418.94
2022-08-03T12:35:01.718Z,100420.25
2022-08-03T12:37:29.457Z,100432.59
2022-08-03T12:40:10.256Z,100425.84
2022-08-03T12:42:39.367Z,100428.00
2022-08-03T12:45:25.788Z,100424.22
2022-08-03T12:48:02.435Z,100420.59
2022-08-03T12:50:32.131Z,100424.53
2022-08-03T12:53:04.684Z,100423.97
2022-08-03T12:55:57.200Z,100421.63
2022-08-03T12:58:51.433Z,100421.00
2022-08-03T13:01:18.276Z,100415.00
2022-08-03T13:03:50.514Z,100417.69
2022-08-03T13:06:22.876Z,100414.63
2022-08-03T13:08:51.599Z,100420.94
2022-08-03T13:11:57.995Z,100406.56
2022-08-03T13:14:16.831Z,100408.75
2022-08-03T13:16:48.343Z,100413.94
2022-08-03T13:19:16.013Z,100409.94
2022-08-03T13:22:03.703Z,100413.97
2022-08-03T13:24:31.498Z,100405.94
2022-08-03T13:26:59.443Z,100409.00
2022-08-03T13:29:26.261Z,100419.31
2022-08-03T13:31:53.201Z,100410.94
2022-08-03T13:34:23.505Z,100399.44
2022-08-03T13:37:08.328Z,100411.44
2022-08-03T13:39:57.494Z,100404.03
2022-08-03T13:42:23.072Z,100402.81
2022-08-03T13:44:49.748Z,100392.00
2022-08-03T13:47:17.236Z,100397.63
2022-08-03T13:49:54.289Z,100395.81
2022-08-03T13:52:37.979Z,100387.63
2022-08-03T13:55:06.708Z,100392.59
2022-08-03T13:58:04.251Z,100372.81
2022-08-03T14:00:27.251Z,100373.06
2022-08-03T14:03:02.977Z,100376.97
2022-08-03T14:05:32.090Z,100373.13
2022-08-03T14:08:04.602Z,100366.00
2022-08-03T14:10:33.835Z,100361.41
2022-08-03T14:13:01.045Z,100367.13
2022-08-03T14:15:28.747Z,100360.94
2022-08-03T14:17:56.445Z,100359.59
2022-08-03T14:20:37.274Z,100359.19
2022-08-03T14:23:07.085Z,100352.03
2022-08-03T14:25:43.262Z,100349.03
2022-08-03T14:28:18.832Z,100356.81
2022-08-03T14:30:46.245Z,100353.16
2022-08-03T14:33:12.959Z,100354.97
2022-08-03T14:35:39.951Z,100344.22
2022-08-03T14:38:06.762Z,100348.81
2022-08-03T14:40:46.344Z,100337.19
2022-08-03T14:43:13.351Z,100334.19
2022-08-03T14:45:41.243Z,100336.13
2022-08-03T14:50:29.466Z,100334.25
2022-08-03T14:50:55.439Z,100348.38
2022-08-03T14:53:23.158Z,100336.78
2022-08-03T14:55:51.948Z,100342.34
2022-08-03T14:58:23.527Z,100339.84
2022-08-03T15:00:51.905Z,100337.69
2022-08-03T15:03:25.436Z,100343.63
2022-08-03T15:05:57.319Z,100328.47
2022-08-03T15:08:25.575Z,100325.59
2022-08-03T15:10:54.038Z,100324.47
2022-08-03T15:13:21.146Z,100317.72
2022-08-03T15:15:48.531Z,100314.09
2022-08-03T15:18:15.708Z,100315.66
2022-08-03T15:20:45.394Z,100312.09
2022-08-03T15:23:14.461Z,100304.06
2022-08-03T15:26:03.302Z,100301.84
2022-08-03T15:28:29.148Z,100293.44
2022-08-03T15:30:55.874Z,100287.78
2022-08-03T15:33:22.640Z,100290.47
2022-08-03T15:35:49.931Z,100282.00
2022-08-03T15:38:17.037Z,100291.31
2022-08-03T15:40:43.757Z,100278.69
2022-08-03T15:43:10.749Z,100278.22
2022-08-03T15:45:37.618Z,100277.34
2022-08-03T15:48:07.426Z,100278.22
2022-08-03T15:50:34.611Z,100278.81
2022-08-03T15:53:01.308Z,100276.47
2022-08-03T15:55:28.092Z,100273.22
2022-08-03T15:59:09.885Z,100275.13
2022-08-03T16:00:43.025Z,100271.16
2022-08-03T16:03:10.536Z,100268.19
2022-08-03T16:05:37.336Z,100277.59
2022-08-03T16:08:05.636Z,100272.41
2022-08-03T16:10:34.623Z,100268.91
2022-08-03T16:13:01.356Z,100270.22
2022-08-03T16:15:28.147Z,100268.16
2022-08-03T16:17:55.205Z,100269.88
2022-08-03T16:20:31.473Z,100261.94
2022-08-03T16:23:09.154Z,100255.66
2022-08-03T16:25:39.511Z,100266.28
2022-08-03T16:28:13.128Z,100261.03
2022-08-03T16:30:43.306Z,100255.66
2022-08-03T16:33:11.161Z,100262.78
2022-08-03T16:35:38.318Z,100250.75
2022-08-03T16:38:09.975Z,100255.47
2022-08-03T16:40:38.056Z,100261.03
2022-08-03T16:43:18.252Z,100259.16
2022-08-03T16:45:47.390Z,100251.28
2022-08-03T16:48:18.748Z,100257.66
2022-08-03T16:50:46.006Z,100260.94
2022-08-03T16:53:16.819Z,100257.75
2022-08-03T16:55:53.093Z,100249.09
2022-08-03T16:58:34.837Z,100255.84
2022-08-03T17:01:22.477Z,100252.00
2022-08-03T17:04:04.692Z,100252.00
2022-08-03T17:06:37.418Z,100252.94
2022-08-03T17:09:11.657Z,100251.72
2022-08-03T17:11:43.989Z,100249.06
2022-08-03T17:14:22.077Z,100252.41
2022-08-03T17:16:52.791Z,100239.19
2022-08-03T17:19:23.001Z,100248.00
2022-08-03T17:21:59.844Z,100250.41
2022-08-03T17:24:44.000Z,100244.84
2022-08-03T17:28:48.176Z,100249.69
2022-08-03T17:30:15.819Z,100246.72
2022-08-03T17:32:56.856Z,100248.13
2022-08-03T17:35:24.435Z,100244.03
2022-08-03T17:38:03.822Z,100253.25
2022-08-03T17:40:32.619Z,100245.78
2022-08-03T17:43:02.492Z,100251.38
2022-08-03T17:45:52.892Z,100247.84
2022-08-03T17:48:24.860Z,100259.38
2022-08-03T17:51:06.570Z,100249.84
2022-08-03T17:53:38.506Z,100253.94
2022-08-03T17:56:44.912Z,100249.66
2022-08-03T17:59:50.729Z,100254.63
2022-08-03T18:02:52.101Z,100255.94
2022-08-03T18:05:22.022Z,100256.88
2022-08-03T18:07:59.539Z,100263.22
2022-08-03T18:10:34.975Z,100261.56
2022-08-03T18:13:10.344Z,100264.34
2022-08-03T18:16:02.401Z,100264.06
2022-08-03T18:18:36.576Z,100260.97
2022-08-03T18:21:09.349Z,100261.38
2022-08-03T18:23:44.783Z,100264.97
2022-08-03T18:26:17.540Z,100257.88
2022-08-03T18:28:45.094Z,100266.63
2022-08-03T18:31:59.933Z,100259.56
2022-08-03T18:34:17.564Z,100257.28
2022-08-03T18:36:52.245Z,100254.56
2022-08-03T18:39:22.663Z,100267.34
2022-08-03T18:41:49.344Z,100251.97
2022-08-03T18:44:45.667Z,100260.75
2022-08-03T18:47:23.515Z,100269.53
2022-08-03T18:49:51.934Z,100267.19
2022-08-03T18:52:52.864Z,100275.19
2022-08-03T18:55:33.344Z,100275.31
2022-08-03T18:58:28.708Z,100270.19
2022-08-03T19:01:06.283Z,100269.91
2022-08-03T19:04:05.408Z,100272.34
2022-08-03T19:06:38.518Z,100268.47
2022-08-03T19:09:09.520Z,100273.28
2022-08-03T19:12:12.719Z,100280.47
2022-08-03T19:14:39.221Z,100282.94
2022-08-03T19:17:10.345Z,100283.75
2022-08-03T19:19:43.667Z,100288.56
2022-08-03T19:22:19.730Z,100280.72
2022-08-03T19:24:49.116Z,100286.28
2022-08-03T19:27:16.265Z,100289.03
2022-08-03T19:29:59.346Z,100303.69
2022-08-03T19:32:32.456Z,100298.22
2022-08-03T19:35:02.922Z,100295.84
2022-08-03T19:37:38.006Z,100298.25
2022-08-03T19:40:06.044Z,100294.72
2022-08-03T19:42:41.089Z,100304.59
2022-08-03T19:45:13.901Z,100303.84
2022-08-03T19:48:10.102Z,100304.66
2022-08-03T19:50:44.617Z,100299.97
2022-08-03T19:53:13.041Z,100301.19
2022-08-03T19:55:48.822Z,100302.41
2022-08-03T19:58:24.332Z,100310.34
2022-08-03T20:00:55.867Z,100304.81
2022-08-03T20:03:26.305Z,100312.72
2022-08-03T20:05:54.153Z,100304.81
2022-08-03T20:08:22.195Z,100311.91
2022-08-03T20:10:51.344Z,100304.81
2022-08-03T20:13:19.533Z,100303.25
2022-08-03T20:15:47.123Z,100307.25
2022-08-03T20:21:06.082Z,100308.06
2022-08-03T20:24:03.381Z,100303.72
2022-08-03T20:26:31.675Z,100310.88
2022-08-03T20:29:09.025Z,100307.31
2022-08-03T20:31:37.606Z,100313.66
2022-08-03T20:34:06.317Z,100311.25
2022-08-03T20:36:33.139Z,100313.66
2022-08-03T20:39:00.021Z,100317.59
2022-08-03T20:41:27.037Z,100311.28
2022-08-03T20:43:54.344Z,100314.47
2022-08-03T20:46:31.945Z,100303.41
2022-08-03T20:49:04.842Z,100312.88
2022-08-03T20:51:50.627Z,100311.28
2022-08-03T20:54:30.918Z,100310.09
2022-08-03T20:57:03.697Z,100306.56
2022-08-03T20:59:46.922Z,100304.59
2022-08-03T21:02:29.545Z,100304.97
2022-08-03T21:05:08.455Z,100303.41
2022-08-03T21:08:06.160Z,100298.69
2022-08-03T21:10:38.239Z,100297.06
2022-08-03T21:13:08.339Z,100305.69
2022-08-03T21:13:17.454Z,100301.78
2022-08-03T21:16:11.263Z,100289.56
2022-08-03T21:18:58.000Z,100295.88
2022-08-03T21:21:30.645Z,100294.69
2022-08-03T21:23:59.641Z,100291.53
2022-08-03T21:26:27.613Z,100291.53
2022-08-03T21:28:56.834Z,100287.19
2022-08-03T21:31:26.476Z,100280.06
2022-08-03T21:34:03.068Z,100288.78
2022-08-03T21:36:32.401Z,100282.44
2022-08-03T21:38:59.836Z,100287.97
2022-08-03T21:41:28.371Z,100287.94
2022-08-03T21:43:55.115Z,100287.97
2022-08-03T21:46:23.288Z,100282.03
2022-08-03T21:48:55.545Z,100285.56
2022-08-03T21:51:25.233Z,100285.16
2022-08-03T21:54:00.415Z,100284.38
2022-08-03T21:56:42.418Z,100289.13
2022-08-03T21:59:18.105Z,100288.72
2022-08-03T22:01:49.324Z,100283.16
2022-08-03T22:04:55.032Z,100279.59
2022-08-03T22:07:08.233Z,100285.09
2022-08-03T22:09:35.716Z,100281.94
2022-08-03T22:12:03.188Z,100280.34
2022-08-03T22:14:32.724Z,100282.69
2022-08-03T22:17:00.657Z,100286.22
2022-08-03T22:19:30.187Z,100287.78
2022-08-03T22:21:58.245Z,100283.84
2022-08-03T22:24:29.063Z,100285.41
2022-08-03T22:27:14.377Z,100292.09
2022-08-03T22:29:42.232Z,100288.94
2022-08-03T22:32:10.402Z,100289.75
2022-08-03T22:34:37.889Z,100291.31
2022-08-03T22:37:06.310Z,100283.41
2022-08-03T22:39:34.275Z,100286.19
2022-08-03T22:42:05.506Z,100285.78
2022-08-03T22:44:32.493Z,100288.13
2022-08-03T22:46:59.626Z,100288.88
2022-08-03T22:49:28.544Z,100288.88
2022-08-03T22:51:56.523Z,100289.69
2022-08-03T22:54:23.657Z,100293.59
2022-08-03T22:56:51.373Z,100289.28
2022-08-03T22:59:41.042Z,100288.09
2022-08-03T23:02:20.230Z,100293.56
2022-08-03T23:04:55.015Z,100302.22
2022-08-03T23:07:29.686Z,100294.72
2022-08-03T23:09:58.092Z,100302.19
2022-08-03T23:12:25.182Z,100302.19
2022-08-03T23:14:54.614Z,100306.91
2022-08-03T23:17:23.247Z,100301.38
2022-08-03T23:19:53.975Z,100304.47
2022-08-03T23:22:30.062Z,100302.09
2022-08-03T23:24:58.908Z,100305.22
2022-08-03T23:27:27.829Z,100306.75
2022-08-03T23:29:58.384Z,100319.38
2022-08-03T23:32:30.393Z,100310.72
2022-08-03T23:35:21.188Z,100311.91
2022-08-03T23:38:04.219Z,100310.66
2022-08-03T23:40:36.788Z,100313.81
2022-08-03T23:43:05.126Z,100312.25
2022-08-03T23:45:35.831Z,100311.44
2022-08-03T23:48:02.585Z,100312.25
2022-08-03T23:50:40.924Z,100310.63
2022-08-03T23:53:26.453Z,100317.31
2022-08-03T23:56:00.449Z,100310.56
2022-08-03T23:58:52.963Z,100312.88
